Time;durP1;ratioP1;P1;durP2;ratioP2;P2;SDS_P1;SDS_P2;PMS_P1;PMS_P2;Temp;Humidity;BMP_temperature;BMP_pressure;BME280_temperature;BME280_humidity;BME280_pressure;Samples;Min_cycle;Max_cycle;Signal;HPM_P1;HPM_P2
2021/09/14 00:01:22;;;;;;;13.63;12.27;;;;;;;;;;5061388;28;20056;-68
2021/09/14 00:03:48;;;;;;;14.15;12.73;;;;;;;;;;5061717;28;20059;-70
2021/09/14 00:06:14;;;;;;;14.52;13.07;;;;;;;;;;5060184;28;20095;-71
2021/09/14 00:08:40;;;;;;;14.40;12.90;;;;;;;;;;5061802;28;20025;-72
2021/09/14 00:11:07;;;;;;;13.85;12.40;;;;;;;;;;5061703;28;20096;-71
2021/09/14 00:13:33;;;;;;;13.40;12.10;;;;;;;;;;5040036;28;20031;-69
2021/09/14 00:15:59;;;;;;;13.98;12.68;;;;;;;;;;5059541;28;20025;-72
2021/09/14 00:18:25;;;;;;;14.63;13.27;;;;;;;;;;5059383;28;20757;-67
2021/09/14 00:20:51;;;;;;;14.75;13.25;;;;;;;;;;5059740;28;20045;-70
2021/09/14 00:23:17;;;;;;;14.15;12.93;;;;;;;;;;5060812;28;20039;-72
2021/09/14 00:25:44;;;;;;;14.65;13.27;;;;;;;;;;5060756;28;20040;-68
2021/09/14 00:28:10;;;;;;;14.60;13.27;;;;;;;;;;5058680;28;20021;-69
2021/09/14 00:30:36;;;;;;;14.65;12.77;;;;;;;;;;5059261;28;20086;-73
2021/09/14 00:33:03;;;;;;;14.23;12.95;;;;;;;;;;5055837;28;20658;-68
2021/09/14 00:35:29;;;;;;;14.65;13.32;;;;;;;;;;5045575;28;20049;-74
2021/09/14 00:37:55;;;;;;;15.32;13.65;;;;;;;;;;5051548;28;20024;-68
2021/09/14 00:40:21;;;;;;;14.00;12.77;;;;;;;;;;5055737;28;20024;-72
2021/09/14 00:42:47;;;;;;;14.43;13.05;;;;;;;;;;5063675;28;20484;-68
2021/09/14 00:45:13;;;;;;;13.85;12.55;;;;;;;;;;5063043;28;20899;-72
2021/09/14 00:47:39;;;;;;;14.43;12.98;;;;;;;;;;5063385;28;20618;-71
2021/09/14 00:50:07;;;;;;;15.30;13.45;;;;;;;;;;5061888;28;20039;-74
2021/09/14 00:52:34;;;;;;;15.38;13.82;;;;;;;;;;5063589;28;20170;-75
2021/09/14 00:55:00;;;;;;;15.68;14.07;;;;;;;;;;5054394;28;20025;-72
2021/09/14 00:57:26;;;;;;;14.50;13.20;;;;;;;;;;5058457;28;20468;-73
2021/09/14 00:59:52;;;;;;;15.20;13.90;;;;;;;;;;5062600;28;20422;-74
2021/09/14 01:02:19;;;;;;;14.63;13.25;;;;;;;;;;5065264;28;20032;-74
2021/09/14 01:04:45;;;;;;;14.82;13.43;;;;;;;;;;5066301;28;20039;-72
2021/09/14 01:07:11;;;;;;;16.45;14.95;;;;;;;;;;5065878;28;20472;-73
2021/09/14 01:09:37;;;;;;;15.50;13.93;;;;;;;;;;5067278;28;20028;-73
2021/09/14 01:12:04;;;;;;;14.75;13.35;;;;;;;;;;5067659;28;20020;-74
2021/09/14 01:14:30;;;;;;;15.30;13.82;;;;;;;;;;5066312;28;20027;-73
2021/09/14 01:16:56;;;;;;;15.32;13.90;;;;;;;;;;5058141;28;20086;-72
2021/09/14 01:19:23;;;;;;;15.38;13.98;;;;;;;;;;5067095;28;20044;-74
2021/09/14 01:21:49;;;;;;;16.73;14.68;;;;;;;;;;5067210;28;20012;-72
2021/09/14 01:24:15;;;;;;;15.32;13.82;;;;;;;;;;5051724;28;20080;-75
2021/09/14 01:26:41;;;;;;;15.02;13.63;;;;;;;;;;5064728;28;20031;-73
2021/09/14 01:29:09;;;;;;;15.60;13.80;;;;;;;;;;5063406;28;20036;-72
2021/09/14 01:31:35;;;;;;;17.85;15.13;;;;;;;;;;5062568;28;20052;-70
2021/09/14 01:34:01;;;;;;;15.57;14.18;;;;;;;;;;5064454;28;20032;-70
2021/09/14 01:36:28;;;;;;;15.52;13.93;;;;;;;;;;5064244;28;20145;-73
2021/09/14 01:38:54;;;;;;;15.52;13.85;;;;;;;;;;5064937;28;20541;-74
2021/09/14 01:41:20;;;;;;;15.38;13.98;;;;;;;;;;5062497;28;20531;-71
2021/09/14 01:43:47;;;;;;;15.45;13.93;;;;;;;;;;5062230;28;20048;-74
2021/09/14 01:46:13;;;;;;;15.63;14.02;;;;;;;;;;5064596;28;20020;-69
2021/09/14 01:48:39;;;;;;;15.90;14.23;;;;;;;;;;5063987;28;20040;-74
2021/09/14 01:51:05;;;;;;;15.27;13.77;;;;;;;;;;5063058;28;20411;-74
2021/09/14 01:53:31;;;;;;;15.43;13.82;;;;;;;;;;5046341;28;20028;-71
2021/09/14 01:56:05;;;;;;;16.02;14.57;;;;;;;;;;5062751;28;20052;-70
2021/09/14 01:58:31;;;;;;;15.43;13.93;;;;;;;;;;5063657;28;20215;-70
2021/09/14 02:59:58;;;;;;;18.10;15.57;;;;;;;;;;5063276;28;20086;-71
2021/09/14 03:02:25;;;;;;;16.40;14.70;;;;;;;;;;5054784;28;20023;-73
2021/09/14 03:04:51;;;;;;;16.85;15.25;;;;;;;;;;5059022;28;20036;-69
2021/09/14 03:07:17;;;;;;;20.20;15.80;;;;;;;;;;5062379;28;20379;-74
2021/09/14 03:09:43;;;;;;;16.92;15.13;;;;;;;;;;5062548;28;20039;-73
2021/09/14 03:12:10;;;;;;;16.67;15.02;;;;;;;;;;5060355;28;20474;-69
2021/09/14 03:14:36;;;;;;;16.67;14.02;;;;;;;;;;5051722;28;20036;-68
2021/09/14 03:17:02;;;;;;;15.93;14.43;;;;;;;;;;5062859;28;20029;-72
2021/09/14 03:19:28;;;;;;;16.77;15.13;;;;;;;;;;5062530;28;20190;-72
2021/09/14 03:21:54;;;;;;;17.90;14.45;;;;;;;;;;5062683;28;20028;-69
2021/09/14 03:24:20;;;;;;;17.58;15.82;;;;;;;;;;5054863;28;20072;-71
2021/09/14 03:26:46;;;;;;;15.30;13.85;;;;;;;;;;5061067;28;20027;-73
2021/09/14 03:29:13;;;;;;;17.83;16.08;;;;;;;;;;5061997;28;20040;-69
2021/09/14 03:31:39;;;;;;;18.02;16.05;;;;;;;;;;5062781;28;20524;-73
2021/09/14 03:34:05;;;;;;;17.80;16.10;;;;;;;;;;5062357;28;20159;-72
2021/09/14 03:36:31;;;;;;;16.92;15.32;;;;;;;;;;5059827;28;20016;-72
2021/09/14 03:38:57;;;;;;;16.58;15.07;;;;;;;;;;5044375;28;20111;-71
2021/09/14 03:41:23;;;;;;;16.92;15.23;;;;;;;;;;5062289;28;20027;-73
2021/09/14 03:43:50;;;;;;;16.15;14.75;;;;;;;;;;5061663;28;20046;-72
2021/09/14 03:46:16;;;;;;;15.88;14.38;;;;;;;;;;5062120;28;20468;-69
2021/09/14 03:48:42;;;;;;;18.65;15.98;;;;;;;;;;5048613;28;20395;-72
2021/09/14 03:51:08;;;;;;;17.98;16.27;;;;;;;;;;5058045;28;20561;-69
2021/09/14 03:53:34;;;;;;;16.73;14.98;;;;;;;;;;5059442;28;20032;-71
2021/09/14 03:56:00;;;;;;;17.42;15.68;;;;;;;;;;5059643;28;20036;-72
2021/09/14 03:58:26;;;;;;;17.90;16.10;;;;;;;;;;5056158;28;20032;-69
2021/09/14 04:00:53;;;;;;;18.60;16.80;;;;;;;;;;5056448;28;20032;-73
2021/09/14 04:03:26;;;;;;;19.38;17.05;;;;;;;;;;5054751;28;20025;-68
2021/09/14 04:06:09;;;;;;;17.92;16.15;;;;;;;;;;5046298;28;20502;-71
2021/09/14 04:08:53;;;;;;;17.48;15.75;;;;;;;;;;5053098;28;20149;-73
2021/09/14 04:11:21;;;;;;;17.15;15.40;;;;;;;;;;5057605;28;20043;-71
2021/09/14 04:13:48;;;;;;;17.25;15.63;;;;;;;;;;5058063;28;20295;-73
2021/09/14 04:16:15;;;;;;;18.10;16.30;;;;;;;;;;5056732;28;20036;-73
2021/09/14 04:18:41;;;;;;;16.27;14.88;;;;;;;;;;5057805;28;20646;-70
2021/09/14 04:21:07;;;;;;;17.80;15.38;;;;;;;;;;5057520;28;20040;-69
2021/09/14 04:23:33;;;;;;;17.05;15.10;;;;;;;;;;5058596;28;20276;-72
2021/09/14 04:25:59;;;;;;;17.17;15.15;;;;;;;;;;5059569;28;20535;-70
2021/09/14 04:28:25;;;;;;;16.67;14.73;;;;;;;;;;5055699;28;20539;-71
2021/09/14 04:30:52;;;;;;;16.83;15.23;;;;;;;;;;5059314;28;20020;-71
2021/09/14 04:33:18;;;;;;;16.25;14.73;;;;;;;;;;5055027;28;20052;-72
2021/09/14 04:35:44;;;;;;;17.15;15.48;;;;;;;;;;5049842;28;20204;-73
2021/09/14 04:38:10;;;;;;;17.33;15.55;;;;;;;;;;5039955;28;20039;-72
2021/09/14 04:40:36;;;;;;;18.60;15.80;;;;;;;;;;5039193;28;20532;-69
2021/09/14 04:43:02;;;;;;;17.10;15.10;;;;;;;;;;5059216;28;20037;-68
2021/09/14 04:45:29;;;;;;;16.27;14.77;;;;;;;;;;5059269;28;20032;-70
2021/09/14 04:47:55;;;;;;;16.65;14.98;;;;;;;;;;5059513;28;20028;-69
2021/09/14 04:50:21;;;;;;;17.70;15.25;;;;;;;;;;5059193;28;20036;-73
2021/09/14 04:52:47;;;;;;;16.38;14.68;;;;;;;;;;5056533;28;20054;-73
2021/09/14 04:55:13;;;;;;;16.45;14.85;;;;;;;;;;5059123;28;20078;-71
2021/09/14 04:57:40;;;;;;;16.58;14.88;;;;;;;;;;5058497;28;20033;-68
2021/09/14 05:00:06;;;;;;;16.98;15.27;;;;;;;;;;5058853;28;20044;-70
2021/09/14 05:02:32;;;;;;;16.02;14.60;;;;;;;;;;5053545;28;20031;-72
2021/09/14 05:04:58;;;;;;;15.68;14.27;;;;;;;;;;5060512;28;20033;-71
2021/09/14 05:07:25;;;;;;;16.88;15.10;;;;;;;;;;5060577;28;20491;-70
2021/09/14 05:09:51;;;;;;;17.85;15.93;;;;;;;;;;5060762;28;20017;-69
2021/09/14 05:12:17;;;;;;;16.40;14.75;;;;;;;;;;5060172;28;20028;-72
2021/09/14 05:14:43;;;;;;;17.25;15.45;;;;;;;;;;5057206;28;20534;-70
2021/09/14 05:17:09;;;;;;;16.50;14.73;;;;;;;;;;5057517;28;20042;-70
2021/09/14 05:19:38;;;;;;;16.88;15.38;;;;;;;;;;5060086;28;20049;-71
2021/09/14 05:22:04;;;;;;;19.38;15.68;;;;;;;;;;5054023;28;20131;-70
2021/09/14 05:24:31;;;;;;;16.63;14.98;;;;;;;;;;5059683;28;20189;-72
2021/09/14 05:26:57;;;;;;;16.65;15.05;;;;;;;;;;5060502;28;20021;-71
2021/09/14 05:29:24;;;;;;;16.15;14.18;;;;;;;;;;5058484;28;20044;-70
2021/09/14 05:31:51;;;;;;;16.33;14.70;;;;;;;;;;5061288;28;20029;-69
2021/09/14 05:34:17;;;;;;;16.40;14.75;;;;;;;;;;5059404;28;20032;-70
2021/09/14 05:36:44;;;;;;;15.85;14.43;;;;;;;;;;5059768;28;20020;-71
2021/09/14 05:39:10;;;;;;;17.63;15.38;;;;;;;;;;5059307;28;20024;-71
2021/09/14 05:41:36;;;;;;;17.08;15.35;;;;;;;;;;5060276;28;20888;-71
2021/09/14 05:44:02;;;;;;;17.60;15.80;;;;;;;;;;5041788;28;20036;-71
2021/09/14 05:46:29;;;;;;;17.50;15.65;;;;;;;;;;5059081;28;20767;-72
2021/09/14 05:48:55;;;;;;;17.83;16.02;;;;;;;;;;5059748;28;20043;-72
2021/09/14 05:51:21;;;;;;;18.60;16.42;;;;;;;;;;5055228;28;20039;-71
2021/09/14 05:53:47;;;;;;;16.48;13.80;;;;;;;;;;5058687;28;20086;-71
2021/09/14 05:56:14;;;;;;;18.15;15.10;;;;;;;;;;5054438;28;20029;-72
2021/09/14 05:58:40;;;;;;;21.52;16.50;;;;;;;;;;5056373;28;20084;-72
2021/09/14 06:01:08;;;;;;;23.08;16.95;;;;;;;;;;5062125;28;20027;-72
2021/09/14 06:03:34;;;;;;;20.90;16.70;;;;;;;;;;5058728;28;20051;-72
2021/09/14 06:06:00;;;;;;;16.88;15.13;;;;;;;;;;5063405;28;20035;-72
2021/09/14 06:08:26;;;;;;;19.17;16.10;;;;;;;;;;5058300;28;20024;-71
2021/09/14 06:10:53;;;;;;;19.85;16.92;;;;;;;;;;5058024;28;20041;-73
2021/09/14 06:13:19;;;;;;;21.00;16.55;;;;;;;;;;5060748;28;20031;-72
2021/09/14 06:15:45;;;;;;;19.35;17.20;;;;;;;;;;5057425;28;20238;-71
2021/09/14 06:18:12;;;;;;;20.65;18.48;;;;;;;;;;5052211;28;20404;-72
2021/09/14 06:20:38;;;;;;;25.95;18.73;;;;;;;;;;5059512;28;20048;-72
2021/09/14 06:23:04;;;;;;;21.65;16.55;;;;;;;;;;5040458;28;20020;-72
2021/09/14 06:25:30;;;;;;;19.80;16.48;;;;;;;;;;5059964;28;20072;-72
2021/09/14 06:27:57;;;;;;;17.35;15.75;;;;;;;;;;5059950;28;20483;-72
2021/09/14 06:30:23;;;;;;;17.35;15.60;;;;;;;;;;5060836;28;20029;-73
2021/09/14 06:32:49;;;;;;;19.45;17.30;;;;;;;;;;5062695;28;20100;-72
2021/09/14 06:35:15;;;;;;;18.73;16.73;;;;;;;;;;5060299;28;20032;-72
2021/09/14 06:37:41;;;;;;;19.70;17.75;;;;;;;;;;5062710;28;20112;-72
2021/09/14 06:40:08;;;;;;;21.85;18.38;;;;;;;;;;5061708;28;20104;-72
2021/09/14 06:42:34;;;;;;;21.95;18.25;;;;;;;;;;5062066;28;20043;-72
2021/09/14 06:45:01;;;;;;;21.33;19.23;;;;;;;;;;5061314;28;20511;-72
2021/09/14 06:47:27;;;;;;;19.50;17.15;;;;;;;;;;5061133;28;20050;-72
2021/09/14 06:49:53;;;;;;;24.30;19.05;;;;;;;;;;5061849;28;20032;-72
2021/09/14 06:52:19;;;;;;;19.83;17.70;;;;;;;;;;5062004;28;20032;-72
2021/09/14 06:54:45;;;;;;;20.30;17.33;;;;;;;;;;5060905;28;20028;-71
2021/09/14 06:57:11;;;;;;;22.35;19.65;;;;;;;;;;5062297;28;20020;-72
2021/09/14 06:59:38;;;;;;;19.25;17.35;;;;;;;;;;5061739;28;20028;-72
2021/09/14 07:02:04;;;;;;;22.33;19.13;;;;;;;;;;5054965;28;20028;-72
2021/09/14 07:04:30;;;;;;;19.45;17.40;;;;;;;;;;5056446;28;20051;-72
2021/09/14 07:06:56;;;;;;;20.95;18.70;;;;;;;;;;5061183;28;20025;-72
2021/09/14 07:09:22;;;;;;;20.02;17.92;;;;;;;;;;5061974;28;20021;-71
2021/09/14 07:11:48;;;;;;;17.95;16.15;;;;;;;;;;5062141;28;20016;-72
2021/09/14 07:14:15;;;;;;;16.77;15.18;;;;;;;;;;5045535;28;20059;-72
2021/09/14 07:16:41;;;;;;;14.50;13.20;;;;;;;;;;5061220;28;20024;-72
2021/09/14 07:19:07;;;;;;;15.20;13.77;;;;;;;;;;5061141;28;20052;-72
2021/09/14 07:21:34;;;;;;;13.70;12.50;;;;;;;;;;5061842;28;20102;-72
2021/09/14 07:24:00;;;;;;;13.27;12.05;;;;;;;;;;5061079;28;20032;-72
2021/09/14 07:26:26;;;;;;;18.55;11.88;;;;;;;;;;5061494;28;20472;-72
2021/09/14 07:28:53;;;;;;;14.15;12.80;;;;;;;;;;5059063;28;20036;-72
2021/09/14 07:31:19;;;;;;;14.23;12.88;;;;;;;;;;5038213;28;20120;-72
2021/09/14 07:33:46;;;;;;;15.18;13.65;;;;;;;;;;5057248;28;20039;-73
2021/09/14 07:36:12;;;;;;;14.48;13.07;;;;;;;;;;5060863;28;20032;-72
2021/09/14 07:38:43;;;;;;;13.52;12.40;;;;;;;;;;5055801;28;20031;-73
2021/09/14 07:41:09;;;;;;;14.07;12.77;;;;;;;;;;5058425;28;20044;-72
2021/09/14 07:43:35;;;;;;;14.27;12.88;;;;;;;;;;5060522;28;20594;-72
2021/09/14 07:46:01;;;;;;;13.85;12.43;;;;;;;;;;5060215;28;20407;-72
2021/09/14 07:48:28;;;;;;;15.95;14.40;;;;;;;;;;5061093;28;20624;-72
2021/09/14 07:50:54;;;;;;;13.85;12.65;;;;;;;;;;5039615;28;20566;-72
2021/09/14 07:53:20;;;;;;;15.10;13.70;;;;;;;;;;5041217;28;20448;-71
2021/09/14 07:55:46;;;;;;;14.57;13.18;;;;;;;;;;5061081;28;20069;-71
2021/09/14 07:58:12;;;;;;;19.10;12.50;;;;;;;;;;5061058;28;20041;-73
2021/09/14 08:00:39;;;;;;;13.48;12.27;;;;;;;;;;5061266;28;20031;-72
2021/09/14 08:03:05;;;;;;;16.58;12.45;;;;;;;;;;5054718;28;20028;-72
2021/09/14 08:05:31;;;;;;;13.43;12.02;;;;;;;;;;5058900;28;20114;-72
2021/09/14 08:07:57;;;;;;;12.40;11.20;;;;;;;;;;5061228;28;20017;-72
2021/09/14 08:10:23;;;;;;;12.98;11.82;;;;;;;;;;5061170;28;20024;-71
2021/09/14 08:12:50;;;;;;;13.25;11.55;;;;;;;;;;5060525;28;20024;-72
2021/09/14 08:15:16;;;;;;;14.07;12.73;;;;;;;;;;5059115;28;20017;-72
2021/09/14 08:17:42;;;;;;;12.88;11.77;;;;;;;;;;5059977;28;20037;-72
2021/09/14 08:20:08;;;;;;;12.75;11.55;;;;;;;;;;5060768;28;20055;-71
2021/09/14 08:22:34;;;;;;;13.50;12.27;;;;;;;;;;5059626;28;20475;-71
2021/09/14 08:25:01;;;;;;;13.45;12.05;;;;;;;;;;5058786;28;20036;-71
2021/09/14 08:27:27;;;;;;;14.02;11.90;;;;;;;;;;5042269;28;20071;-71
2021/09/14 08:29:53;;;;;;;12.95;11.70;;;;;;;;;;5060553;28;20024;-71
2021/09/14 08:32:19;;;;;;;12.10;10.90;;;;;;;;;;5059950;28;20016;-71
2021/09/14 08:34:45;;;;;;;13.15;11.88;;;;;;;;;;5059589;28;20063;-71
2021/09/14 08:37:12;;;;;;;14.18;11.95;;;;;;;;;;5059422;28;20488;-72
2021/09/14 08:39:38;;;;;;;11.45;10.35;;;;;;;;;;5041854;28;20031;-71
2021/09/14 08:42:04;;;;;;;13.68;12.23;;;;;;;;;;5060579;28;20024;-72
2021/09/14 08:44:31;;;;;;;14.32;11.57;;;;;;;;;;5041392;28;20124;-72
2021/09/14 08:47:00;;;;;;;12.80;11.70;;;;;;;;;;5058683;28;20020;-71
2021/09/14 08:49:26;;;;;;;13.57;11.88;;;;;;;;;;5058591;28;20337;-71
2021/09/14 08:51:52;;;;;;;13.90;12.52;;;;;;;;;;5058592;28;20012;-72
2021/09/14 08:54:19;;;;;;;14.43;12.45;;;;;;;;;;5058476;28;20024;-71
2021/09/14 08:56:45;;;;;;;14.57;13.07;;;;;;;;;;5058095;28;20081;-71
2021/09/14 08:59:11;;;;;;;13.20;11.90;;;;;;;;;;5055611;28;20043;-71
2021/09/14 09:01:37;;;;;;;15.98;13.35;;;;;;;;;;5058577;28;20299;-72
2021/09/14 09:04:04;;;;;;;13.60;12.40;;;;;;;;;;5059335;28;20441;-71
2021/09/14 09:06:35;;;;;;;12.75;11.55;;;;;;;;;;5057602;28;20060;-72
2021/09/14 09:09:28;;;;;;;15.52;12.93;;;;;;;;;;5060144;28;20127;-71
2021/09/14 09:12:05;;;;;;;14.85;13.35;;;;;;;;;;5056029;28;20236;-71
2021/09/14 09:14:40;;;;;;;12.50;11.40;;;;;;;;;;5060325;28;20107;-71
2021/09/14 09:17:07;;;;;;;12.70;11.60;;;;;;;;;;5058186;28;20022;-71
2021/09/14 09:19:34;;;;;;;12.75;11.55;;;;;;;;;;5058509;28;20056;-71
2021/09/14 09:22:00;;;;;;;13.07;11.93;;;;;;;;;;5057408;28;20456;-72
2021/09/14 09:24:26;;;;;;;12.63;11.48;;;;;;;;;;5061073;28;20028;-72
2021/09/14 09:26:53;;;;;;;12.63;11.35;;;;;;;;;;5061927;28;20028;-71
2021/09/14 09:29:20;;;;;;;13.10;12.00;;;;;;;;;;5061491;28;20056;-72
2021/09/14 09:31:48;;;;;;;12.40;11.00;;;;;;;;;;5061299;28;20017;-72
2021/09/14 09:34:14;;;;;;;11.85;10.85;;;;;;;;;;5061824;28;20506;-71
2021/09/14 09:36:41;;;;;;;13.93;12.60;;;;;;;;;;5062031;28;20465;-71
2021/09/14 09:39:09;;;;;;;12.68;11.43;;;;;;;;;;5040691;28;20435;-72
2021/09/14 09:41:38;;;;;;;12.25;10.98;;;;;;;;;;5063105;28;20021;-72
2021/09/14 09:44:05;;;;;;;12.15;10.88;;;;;;;;;;5063166;28;20041;-72
2021/09/14 09:46:31;;;;;;;12.13;10.95;;;;;;;;;;5062836;28;20021;-72
2021/09/14 09:48:57;;;;;;;11.57;10.30;;;;;;;;;;5063402;28;20114;-72
2021/09/14 09:51:24;;;;;;;11.30;10.07;;;;;;;;;;5062409;28;20017;-71
2021/09/14 09:53:51;;;;;;;12.57;11.27;;;;;;;;;;5063933;28;20020;-71
2021/09/14 09:56:17;;;;;;;14.93;11.32;;;;;;;;;;5063374;28;20394;-71
2021/09/14 09:58:45;;;;;;;12.25;11.25;;;;;;;;;;5063665;28;20027;-71
2021/09/14 10:01:19;;;;;;;12.43;11.23;;;;;;;;;;5064223;28;20117;-71
2021/09/14 10:04:16;;;;;;;11.60;10.38;;;;;;;;;;5061323;28;20067;-72
2021/09/14 10:06:48;;;;;;;11.73;10.73;;;;;;;;;;5037056;28;20048;-72
2021/09/14 10:09:15;;;;;;;11.75;10.55;;;;;;;;;;5061759;28;20028;-72
2021/09/14 10:11:41;;;;;;;11.30;10.27;;;;;;;;;;5062379;28;20031;-72
2021/09/14 10:14:11;;;;;;;11.00;9.85;;;;;;;;;;5062626;28;20614;-71
2021/09/14 10:16:39;;;;;;;10.50;9.57;;;;;;;;;;5062749;28;20024;-71
2021/09/14 10:19:16;;;;;;;12.25;11.15;;;;;;;;;;5061149;28;20532;-72
2021/09/14 10:21:58;;;;;;;10.35;9.45;;;;;;;;;;5063366;28;20488;-72
2021/09/14 10:24:25;;;;;;;12.80;10.48;;;;;;;;;;5062466;28;20131;-71
2021/09/14 10:27:01;;;;;;;12.13;10.93;;;;;;;;;;5062736;28;20021;-72
2021/09/14 10:29:28;;;;;;;11.88;10.68;;;;;;;;;;5061342;28;20153;-71
2021/09/14 10:32:01;;;;;;;10.90;9.95;;;;;;;;;;5063156;28;20300;-71
2021/09/14 10:34:27;;;;;;;10.68;9.68;;;;;;;;;;5061951;28;20433;-72
2021/09/14 10:37:01;;;;;;;11.25;10.25;;;;;;;;;;5062876;28;20099;-71
2021/09/14 10:39:28;;;;;;;11.43;10.27;;;;;;;;;;5063103;28;20480;-72
2021/09/14 10:41:55;;;;;;;11.38;10.38;;;;;;;;;;5060559;28;20125;-72
2021/09/14 10:44:28;;;;;;;11.10;10.10;;;;;;;;;;5062118;28;20496;-72
2021/09/14 10:47:11;;;;;;;11.30;10.27;;;;;;;;;;5061501;28;20163;-71
2021/09/14 10:49:47;;;;;;;10.60;9.55;;;;;;;;;;5060516;28;20401;-72
2021/09/14 10:52:14;;;;;;;11.93;10.73;;;;;;;;;;5061043;28;20391;-72
2021/09/14 10:54:51;;;;;;;11.57;10.48;;;;;;;;;;5061997;28;20131;-71
2021/09/14 10:57:22;;;;;;;11.82;10.65;;;;;;;;;;5060317;28;20178;-72
2021/09/14 10:59:51;;;;;;;12.18;11.07;;;;;;;;;;5060444;28;20020;-71
2021/09/14 11:02:18;;;;;;;11.35;10.18;;;;;;;;;;5061374;28;20074;-72
2021/09/14 11:04:45;;;;;;;12.10;10.93;;;;;;;;;;5061402;28;20040;-72
2021/09/14 11:07:11;;;;;;;11.75;10.55;;;;;;;;;;5061947;28;20044;-72
2021/09/14 11:09:38;;;;;;;13.65;11.90;;;;;;;;;;5060771;28;20044;-71
2021/09/14 11:12:04;;;;;;;12.75;11.65;;;;;;;;;;5061772;28;20578;-72
2021/09/14 11:14:36;;;;;;;12.18;11.10;;;;;;;;;;5062237;28;20027;-72
2021/09/14 11:17:03;;;;;;;12.57;11.32;;;;;;;;;;5061408;28;20103;-72
2021/09/14 11:19:29;;;;;;;13.35;12.20;;;;;;;;;;5062029;28;20049;-71
2021/09/14 11:21:55;;;;;;;11.93;10.80;;;;;;;;;;5060682;28;20603;-71
2021/09/14 11:24:21;;;;;;;13.43;11.80;;;;;;;;;;5061363;28;20044;-71
2021/09/14 11:26:48;;;;;;;13.57;12.38;;;;;;;;;;5061947;28;20031;-71
2021/09/14 11:29:14;;;;;;;13.38;12.00;;;;;;;;;;5062086;28;20421;-72
2021/09/14 11:31:40;;;;;;;14.23;12.93;;;;;;;;;;5061716;28;20029;-72
2021/09/14 11:34:07;;;;;;;13.77;12.43;;;;;;;;;;5060255;28;20029;-72
2021/09/14 11:36:33;;;;;;;13.52;12.23;;;;;;;;;;5061125;28;20422;-72
2021/09/14 11:39:01;;;;;;;12.77;11.55;;;;;;;;;;5061622;28;20123;-71
2021/09/14 11:41:34;;;;;;;13.23;12.00;;;;;;;;;;5062173;28;20346;-72
2021/09/14 11:44:00;;;;;;;13.80;12.60;;;;;;;;;;5059907;28;20033;-71
2021/09/14 11:46:26;;;;;;;12.70;11.50;;;;;;;;;;5060901;28;20042;-74
2021/09/14 11:48:54;;;;;;;12.82;11.63;;;;;;;;;;5043431;28;20340;-71
2021/09/14 11:51:20;;;;;;;13.35;12.15;;;;;;;;;;5060150;28;20031;-71
2021/09/14 11:53:48;;;;;;;12.40;11.23;;;;;;;;;;5061462;28;20367;-72
2021/09/14 11:56:15;;;;;;;13.63;12.32;;;;;;;;;;5061211;28;20058;-71
2021/09/14 11:58:43;;;;;;;13.48;12.35;;;;;;;;;;5061584;28;20464;-71
2021/09/14 12:01:10;;;;;;;11.80;10.70;;;;;;;;;;5061231;28;20032;-71
2021/09/14 12:03:39;;;;;;;13.00;11.80;;;;;;;;;;5059791;28;20029;-70
2021/09/14 12:06:06;;;;;;;12.75;11.68;;;;;;;;;;5061035;28;20471;-69
2021/09/14 12:08:33;;;;;;;14.30;12.68;;;;;;;;;;5061172;28;20024;-69
2021/09/14 12:11:00;;;;;;;13.73;12.40;;;;;;;;;;5061023;28;20079;-69
2021/09/14 12:13:26;;;;;;;12.82;11.73;;;;;;;;;;5059445;28;20028;-69
2021/09/14 12:15:58;;;;;;;12.73;11.63;;;;;;;;;;5061032;28;20115;-69
2021/09/14 12:18:24;;;;;;;;;;;;;;;;;;5061088;28;20028;-69
2021/09/14 12:20:50;;;;;;;13.43;12.23;;;;;;;;;;5060739;28;19927;-70
2021/09/14 12:23:16;;;;;;;12.65;11.55;;;;;;;;;;5059233;28;20646;-69
2021/09/14 12:25:43;;;;;;;12.95;11.77;;;;;;;;;;5060163;28;20047;-69
2021/09/14 12:28:09;;;;;;;12.38;11.18;;;;;;;;;;5060174;28;20020;-69
2021/09/14 12:30:35;;;;;;;13.55;12.35;;;;;;;;;;5058826;28;20029;-69
2021/09/14 12:33:01;;;;;;;14.27;12.93;;;;;;;;;;5060802;28;20026;-70
2021/09/14 12:35:28;;;;;;;14.32;11.73;;;;;;;;;;5060223;28;20029;-69
2021/09/14 12:37:54;;;;;;;12.90;11.73;;;;;;;;;;5059999;28;20035;-69
2021/09/14 12:40:20;;;;;;;16.02;12.68;;;;;;;;;;5059960;28;20610;-69
2021/09/14 12:42:46;;;;;;;12.75;11.65;;;;;;;;;;5060400;28;20111;-69
2021/09/14 12:45:13;;;;;;;13.77;12.43;;;;;;;;;;5058379;28;20488;-69
2021/09/14 12:47:39;;;;;;;14.13;12.82;;;;;;;;;;5054113;28;20486;-71
2021/09/14 12:50:05;;;;;;;13.70;12.40;;;;;;;;;;5058958;28;20032;-71
2021/09/14 12:52:32;;;;;;;13.30;12.10;;;;;;;;;;5060207;28;20035;-69
2021/09/14 12:54:58;;;;;;;14.18;12.68;;;;;;;;;;5050688;28;20040;-70
2021/09/14 12:57:24;;;;;;;13.57;12.25;;;;;;;;;;5051695;28;20033;-71
2021/09/14 12:59:50;;;;;;;13.60;12.20;;;;;;;;;;5058646;28;20047;-69
2021/09/14 13:02:16;;;;;;;13.05;11.40;;;;;;;;;;5057247;28;20557;-69
2021/09/14 13:04:43;;;;;;;13.45;11.82;;;;;;;;;;5064717;28;20054;-70
2021/09/14 13:07:09;;;;;;;12.75;11.35;;;;;;;;;;5063843;28;20056;-69
2021/09/14 13:09:35;;;;;;;13.88;12.48;;;;;;;;;;5063636;28;20538;-69
2021/09/14 13:12:02;;;;;;;13.25;11.18;;;;;;;;;;5064614;28;20039;-69
2021/09/14 13:17:13;;;;;;;12.50;11.30;;;;;;;;;;5063904;28;20090;-69
2021/09/14 13:19:40;;;;;;;11.45;10.50;;;;;;;;;;5062092;28;20055;-69
2021/09/14 13:22:06;;;;;;;11.85;10.75;;;;;;;;;;5063810;28;20029;-69
2021/09/14 13:24:32;;;;;;;11.68;10.68;;;;;;;;;;5061896;28;20025;-72
2021/09/14 13:26:58;;;;;;;12.48;11.10;;;;;;;;;;5043650;28;20017;-72
2021/09/14 13:29:24;;;;;;;14.25;12.50;;;;;;;;;;5059950;28;20214;-71
2021/09/14 13:31:50;;;;;;;12.07;10.88;;;;;;;;;;5064112;28;20028;-71
2021/09/14 13:34:17;;;;;;;13.82;12.52;;;;;;;;;;5064788;28;20116;-71
2021/09/14 13:36:43;;;;;;;12.93;11.73;;;;;;;;;;5063904;28;20291;-71
2021/09/14 13:39:09;;;;;;;13.18;11.98;;;;;;;;;;5062786;28;20030;-72
2021/09/14 13:41:39;;;;;;;12.45;11.25;;;;;;;;;;5060633;28;20032;-73
2021/09/14 13:46:51;;;;;;;13.85;12.57;;;;;;;;;;5061057;28;20047;-72
2021/09/14 13:49:17;;;;;;;16.83;12.35;;;;;;;;;;5061723;28;20115;-72
2021/09/14 13:51:43;;;;;;;14.02;12.60;;;;;;;;;;5054314;28;20025;-72
2021/09/14 13:54:09;;;;;;;12.68;11.43;;;;;;;;;;5063237;28;20025;-72
2021/09/14 13:56:35;;;;;;;12.13;11.02;;;;;;;;;;5063540;28;20024;-72
2021/09/14 13:59:02;;;;;;;15.65;12.85;;;;;;;;;;5063093;28;20039;-74
2021/09/14 14:01:28;;;;;;;19.90;14.10;;;;;;;;;;5060295;28;20109;-73
2021/09/14 14:03:55;;;;;;;13.52;11.57;;;;;;;;;;5041131;28;20040;-72
2021/09/14 14:06:23;;;;;;;12.13;10.90;;;;;;;;;;5056006;28;20083;-72
2021/09/14 14:08:49;;;;;;;12.43;10.93;;;;;;;;;;5062888;28;20040;-72
2021/09/14 14:11:16;;;;;;;12.77;10.82;;;;;;;;;;5044141;28;20047;-72
2021/09/14 14:13:42;;;;;;;11.57;10.45;;;;;;;;;;5063641;28;20039;-72
2021/09/14 14:16:09;;;;;;;11.18;10.07;;;;;;;;;;5062453;28;20103;-71
2021/09/14 14:18:35;;;;;;;10.40;9.50;;;;;;;;;;5063032;28;20212;-71
2021/09/14 14:21:01;;;;;;;10.75;9.75;;;;;;;;;;5045095;28;20127;-72
2021/09/14 14:23:27;;;;;;;11.45;10.40;;;;;;;;;;5040171;28;20055;-72
2021/09/14 14:25:54;;;;;;;10.07;9.23;;;;;;;;;;5062600;28;20032;-72
2021/09/14 14:28:20;;;;;;;11.27;9.10;;;;;;;;;;5044452;28;20025;-72
2021/09/14 14:30:46;;;;;;;11.68;9.65;;;;;;;;;;5063353;28;20123;-71
2021/09/14 14:33:12;;;;;;;11.93;9.73;;;;;;;;;;5055377;28;20074;-72
2021/09/14 14:35:38;;;;;;;10.13;9.18;;;;;;;;;;5061813;28;20073;-72
2021/09/14 14:38:05;;;;;;;9.73;8.80;;;;;;;;;;5063075;28;20028;-71
2021/09/14 14:40:31;;;;;;;9.73;8.73;;;;;;;;;;5041605;28;20091;-73
2021/09/14 14:42:58;;;;;;;10.25;9.43;;;;;;;;;;5056572;28;20028;-72
2021/09/14 14:45:24;;;;;;;9.82;8.80;;;;;;;;;;5060682;28;20556;-72
2021/09/14 14:47:53;;;;;;;9.55;8.50;;;;;;;;;;5043234;28;20032;-72
2021/09/14 14:50:20;;;;;;;10.02;9.10;;;;;;;;;;5060734;28;20126;-72
2021/09/14 14:52:46;;;;;;;9.75;8.77;;;;;;;;;;5062327;28;20021;-71
2021/09/14 14:55:12;;;;;;;10.02;8.88;;;;;;;;;;5062460;28;20368;-71
2021/09/14 14:57:39;;;;;;;11.10;8.40;;;;;;;;;;5062194;28;20025;-72
2021/09/14 15:00:06;;;;;;;9.52;8.60;;;;;;;;;;5048182;28;20039;-72
2021/09/14 15:02:32;;;;;;;8.52;7.75;;;;;;;;;;5057574;28;20024;-73
2021/09/14 15:04:58;;;;;;;9.32;8.52;;;;;;;;;;5059025;28;20043;-72
2021/09/14 15:07:25;;;;;;;8.43;7.63;;;;;;;;;;5061354;28;20027;-73
2021/09/14 15:09:51;;;;;;;8.85;7.95;;;;;;;;;;5060593;28;20801;-72
2021/09/14 15:12:17;;;;;;;8.68;7.88;;;;;;;;;;5057531;28;20081;-71
2021/09/14 15:14:44;;;;;;;9.20;8.30;;;;;;;;;;5059825;28;20464;-71
2021/09/14 15:17:11;;;;;;;9.68;7.97;;;;;;;;;;5053837;28;20040;-71
2021/09/14 15:19:37;;;;;;;9.20;8.30;;;;;;;;;;5059681;28;20045;-72
2021/09/14 15:22:03;;;;;;;9.50;7.97;;;;;;;;;;5061460;28;20040;-72